sensor_id;sensor_type;location;lat;lon;timestamp;pressure;altitude;pressure_sealevel;temperature;humidity
7200;BME280;3641;49.082;8.200;2023-01-01T00:01:35;100486.59;;;12.90;76.43
7200;BME280;3641;49.082;8.200;2023-01-01T00:04:06;100492.22;;;12.82;77.33
7200;BME280;3641;49.082;8.200;2023-01-01T00:06:35;100500.44;;;12.82;75.62
7200;BME280;3641;49.082;8.200;2023-01-01T00:09:01;100505.34;;;12.86;75.68
7200;BME280;3641;49.082;8.200;2023-01-01T00:11:45;100506.31;;;12.79;76.58
7200;BME280;3641;49.082;8.200;2023-01-01T00:14:12;100497.25;;;12.78;77.28
7200;BME280;3641;49.082;8.200;2023-01-01T00:16:39;100509.38;;;12.69;76.92
7200;BME280;3641;49.082;8.200;2023-01-01T00:19:07;100506.06;;;12.74;76.37
7200;BME280;3641;49.082;8.200;2023-01-01T00:21:33;100509.63;;;12.74;75.69
7200;BME280;3641;49.082;8.200;2023-01-01T00:24:00;100527.38;;;12.78;75.26
7200;BME280;3641;49.082;8.200;2023-01-01T00:26:26;100518.06;;;12.94;74.74
7200;BME280;3641;49.082;8.200;2023-01-01T00:28:53;100509.34;;;12.90;76.05
7200;BME280;3641;49.082;8.200;2023-01-01T00:31:21;100514.97;;;12.82;76.50
7200;BME280;3641;49.082;8.200;2023-01-01T00:33:50;100512.75;;;12.71;76.64
7200;BME280;3641;49.082;8.200;2023-01-01T00:36:19;100504.75;;;12.69;76.35
7200;BME280;3641;49.082;8.200;2023-01-01T00:38:46;100510.94;;;12.78;77.29
7200;BME280;3641;49.082;8.200;2023-01-01T00:41:14;100514.78;;;12.84;76.89
7200;BME280;3641;49.082;8.200;2023-01-01T00:43:41;100514.69;;;12.56;77.56
7200;BME280;3641;49.082;8.200;2023-01-01T00:46:09;100507.63;;;12.61;76.52
7200;BME280;3641;49.082;8.200;2023-01-01T00:48:36;100505.53;;;12.63;76.36
7200;BME280;3641;49.082;8.200;2023-01-01T00:51:04;100504.28;;;12.66;75.46
7200;BME280;3641;49.082;8.200;2023-01-01T00:53:32;100515.81;;;12.61;76.54
7200;BME280;3641;49.082;8.200;2023-01-01T00:55:58;100512.69;;;12.64;75.70
7200;BME280;3641;49.082;8.200;2023-01-01T00:58:25;100513.72;;;12.63;76.04
7200;BME280;3641;49.082;8.200;2023-01-01T01:00:52;100512.97;;;12.69;76.97
7200;BME280;3641;49.082;8.200;2023-01-01T01:03:20;100515.19;;;12.59;76.17
7200;BME280;3641;49.082;8.200;2023-01-01T01:05:56;100515.63;;;12.63;77.85
7200;BME280;3641;49.082;8.200;2023-01-01T01:08:24;100518.97;;;12.58;77.38
7200;BME280;3641;49.082;8.200;2023-01-01T01:10:52;100515.50;;;12.49;76.19
7200;BME280;3641;49.082;8.200;2023-01-01T01:13:19;100523.97;;;12.54;76.58
7200;BME280;3641;49.082;8.200;2023-01-01T01:15:45;100528.13;;;12.50;76.51
7200;BME280;3641;49.082;8.200;2023-01-01T01:18:12;100525.41;;;12.50;76.55
7200;BME280;3641;49.082;8.200;2023-01-01T01:20:39;100518.06;;;12.51;76.72
7200;BME280;3641;49.082;8.200;2023-01-01T01:23:05;100537.22;;;12.51;76.29
7200;BME280;3641;49.082;8.200;2023-01-01T01:25:32;100535.91;;;12.47;76.59
7200;BME280;3641;49.082;8.200;2023-01-01T01:27:59;100542.88;;;12.49;76.43
7200;BME280;3641;49.082;8.200;2023-01-01T01:30:26;100547.09;;;12.52;75.77
7200;BME280;3641;49.082;8.200;2023-01-01T01:32:52;100542.38;;;12.61;75.25
7200;BME280;3641;49.082;8.200;2023-01-01T01:35:19;100544.34;;;12.67;74.90
7200;BME280;3641;49.082;8.200;2023-01-01T01:37:45;100552.94;;;12.64;75.37
7200;BME280;3641;49.082;8.200;2023-01-01T01:40:12;100559.25;;;12.64;75.51
7200;BME280;3641;49.082;8.200;2023-01-01T01:42:45;100549.88;;;12.74;74.61
7200;BME280;3641;49.082;8.200;2023-01-01T01:45:13;100554.31;;;12.75;74.68
7200;BME280;3641;49.082;8.200;2023-01-01T01:47:46;100546.50;;;12.93;73.42
7200;BME280;3641;49.082;8.200;2023-01-01T01:50:17;100555.94;;;12.90;74.16
7200;BME280;3641;49.082;8.200;2023-01-01T01:52:53;100551.44;;;13.04;73.09
7200;BME280;3641;49.082;8.200;2023-01-01T01:55:25;100538.56;;;13.05;72.96
7200;BME280;3641;49.082;8.200;2023-01-01T01:57:52;100539.31;;;13.14;73.04
7200;BME280;3641;49.082;8.200;2023-01-01T02:00:21;100533.09;;;13.05;73.10
7200;BME280;3641;49.082;8.200;2023-01-01T02:02:52;100526.81;;;13.11;72.91
7200;BME280;3641;49.082;8.200;2023-01-01T02:05:20;100526.78;;;13.04;73.11
7200;BME280;3641;49.082;8.200;2023-01-01T02:07:48;100516.22;;;13.01;73.59
7200;BME280;3641;49.082;8.200;2023-01-01T02:10:15;100523.41;;;13.02;73.18
7200;BME280;3641;49.082;8.200;2023-01-01T02:12:41;100515.44;;;13.07;72.96
7200;BME280;3641;49.082;8.200;2023-01-01T02:15:08;100517.97;;;13.09;72.56
7200;BME280;3641;49.082;8.200;2023-01-01T02:17:40;100520.91;;;13.07;72.55
7200;BME280;3641;49.082;8.200;2023-01-01T02:20:21;100518.34;;;13.06;73.35
7200;BME280;3641;49.082;8.200;2023-01-01T02:23:06;100517.78;;;13.11;72.80
7200;BME280;3641;49.082;8.200;2023-01-01T02:25:40;100510.38;;;13.11;72.60
7200;BME280;3641;49.082;8.200;2023-01-01T02:28:18;100517.53;;;13.05;73.04
7200;BME280;3641;49.082;8.200;2023-01-01T02:30:50;100522.63;;;13.08;73.21
7200;BME280;3641;49.082;8.200;2023-01-01T02:33:21;100519.47;;;13.12;72.31
7200;BME280;3641;49.082;8.200;2023-01-01T02:35:53;100519.41;;;13.05;73.61
7200;BME280;3641;49.082;8.200;2023-01-01T02:38:24;100510.13;;;13.06;72.89
7200;BME280;3641;49.082;8.200;2023-01-01T02:40:55;100515.63;;;13.06;73.12
7200;BME280;3641;49.082;8.200;2023-01-01T02:43:23;100509.09;;;13.07;72.77
7200;BME280;3641;49.082;8.200;2023-01-01T02:45:50;100510.09;;;12.99;73.18
7200;BME280;3641;49.082;8.200;2023-01-01T02:48:36;100518.69;;;12.96;73.28
7200;BME280;3641;49.082;8.200;2023-01-01T02:51:10;100519.28;;;12.92;73.31
7200;BME280;3641;49.082;8.200;2023-01-01T02:53:44;100524.50;;;12.86;74.05
7200;BME280;3641;49.082;8.200;2023-01-01T02:56:22;100536.38;;;12.94;72.98
7200;BME280;3641;49.082;8.200;2023-01-01T02:59:02;100528.34;;;12.92;73.41
7200;BME280;3641;49.082;8.200;2023-01-01T03:01:57;100524.75;;;12.92;72.89
7200;BME280;3641;49.082;8.200;2023-01-01T03:04:30;100535.34;;;12.95;74.08
7200;BME280;3641;49.082;8.200;2023-01-01T03:07:05;100528.22;;;12.79;73.63
7200;BME280;3641;49.082;8.200;2023-01-01T03:09:42;100539.88;;;12.87;74.11
7200;BME280;3641;49.082;8.200;2023-01-01T03:12:19;100536.06;;;12.82;73.62
7200;BME280;3641;49.082;8.200;2023-01-01T03:14:52;100537.66;;;12.76;73.72
7200;BME280;3641;49.082;8.200;2023-01-01T03:17:27;100536.63;;;12.77;74.28
7200;BME280;3641;49.082;8.200;2023-01-01T03:19:57;100539.13;;;12.72;73.91
7200;BME280;3641;49.082;8.200;2023-01-01T03:22:29;100534.09;;;12.76;73.93
7200;BME280;3641;49.082;8.200;2023-01-01T03:24:59;100540.81;;;12.73;74.11
7200;BME280;3641;49.082;8.200;2023-01-01T03:27:32;100543.09;;;12.69;74.61
7200;BME280;3641;49.082;8.200;2023-01-01T03:30:05;100540.94;;;12.65;74.26
7200;BME280;3641;49.082;8.200;2023-01-01T03:32:38;100539.31;;;12.70;74.96
7200;BME280;3641;49.082;8.200;2023-01-01T03:35:26;100535.84;;;12.62;74.12
7200;BME280;3641;49.082;8.200;2023-01-01T03:37:57;100541.06;;;12.57;74.45
7200;BME280;3641;49.082;8.200;2023-01-01T03:40:26;100540.28;;;12.63;74.64
7200;BME280;3641;49.082;8.200;2023-01-01T03:42:56;100534.16;;;12.61;73.98
7200;BME280;3641;49.082;8.200;2023-01-01T03:45:28;100545.69;;;12.56;75.09
7200;BME280;3641;49.082;8.200;2023-01-01T03:47:57;100546.66;;;12.70;75.47
7200;BME280;3641;49.082;8.200;2023-01-01T03:50:29;100559.19;;;12.58;74.82
7200;BME280;3641;49.082;8.200;2023-01-01T03:53:04;100556.97;;;12.46;74.74
7200;BME280;3641;49.082;8.200;2023-01-01T03:55:36;100556.84;;;12.40;75.79
7200;BME280;3641;49.082;8.200;2023-01-01T03:58:09;100552.06;;;12.42;74.63
7200;BME280;3641;49.082;8.200;2023-01-01T04:00:39;100549.19;;;12.50;74.57
7200;BME280;3641;49.082;8.200;2023-01-01T04:03:15;100547.88;;;12.46;74.72
7200;BME280;3641;49.082;8.200;2023-01-01T04:05:44;100551.16;;;12.56;75.14
7200;BME280;3641;49.082;8.200;2023-01-01T04:08:11;100542.53;;;12.38;74.89
7200;BME280;3641;49.082;8.200;2023-01-01T04:10:42;100550.16;;;12.42;75.39
7200;BME280;3641;49.082;8.200;2023-01-01T04:13:09;100553.34;;;12.46;75.87
7200;BME280;3641;49.082;8.200;2023-01-01T04:15:36;100548.94;;;12.30;75.45
7200;BME280;3641;49.082;8.200;2023-01-01T04:18:03;100549.59;;;12.47;75.65
7200;BME280;3641;49.082;8.200;2023-01-01T04:20:31;100554.78;;;12.42;75.26
7200;BME280;3641;49.082;8.200;2023-01-01T04:22:59;100546.25;;;12.15;75.61
7200;BME280;3641;49.082;8.200;2023-01-01T04:25:26;100561.34;;;12.26;76.02
7200;BME280;3641;49.082;8.200;2023-01-01T04:27:52;100557.00;;;12.16;76.44
7200;BME280;3641;49.082;8.200;2023-01-01T04:30:19;100566.84;;;11.96;76.80
7200;BME280;3641;49.082;8.200;2023-01-01T04:32:46;100562.41;;;12.10;76.96
7200;BME280;3641;49.082;8.200;2023-01-01T04:35:13;100567.53;;;12.34;76.37
7200;BME280;3641;49.082;8.200;2023-01-01T04:37:43;100571.91;;;12.14;76.67
7200;BME280;3641;49.082;8.200;2023-01-01T04:40:10;100568.34;;;11.98;76.86
7200;BME280;3641;49.082;8.200;2023-01-01T04:42:38;100580.50;;;12.11;76.49
7200;BME280;3641;49.082;8.200;2023-01-01T04:45:05;100574.44;;;12.15;76.15
7200;BME280;3641;49.082;8.200;2023-01-01T04:47:32;100579.38;;;12.05;76.41
7200;BME280;3641;49.082;8.200;2023-01-01T04:49:59;100585.97;;;11.81;76.89
7200;BME280;3641;49.082;8.200;2023-01-01T04:52:25;100582.69;;;12.01;76.68
7200;BME280;3641;49.082;8.200;2023-01-01T04:54:53;100588.25;;;11.92;77.05
7200;BME280;3641;49.082;8.200;2023-01-01T04:57:19;100591.16;;;11.91;76.76
7200;BME280;3641;49.082;8.200;2023-01-01T04:59:46;100592.03;;;12.06;76.70
7200;BME280;3641;49.082;8.200;2023-01-01T05:02:12;100595.78;;;11.90;77.02
7200;BME280;3641;49.082;8.200;2023-01-01T05:04:39;100599.53;;;11.74;77.39
7200;BME280;3641;49.082;8.200;2023-01-01T05:07:05;100602.94;;;11.91;77.03
7200;BME280;3641;49.082;8.200;2023-01-01T05:09:32;100601.81;;;11.86;76.93
7200;BME280;3641;49.082;8.200;2023-01-01T05:11:59;100605.84;;;11.90;77.34
7200;BME280;3641;49.082;8.200;2023-01-01T05:14:26;100601.75;;;11.94;76.65
7200;BME280;3641;49.082;8.200;2023-01-01T05:16:52;100614.00;;;11.98;76.39
7200;BME280;3641;49.082;8.200;2023-01-01T05:19:19;100610.47;;;11.89;77.43
7200;BME280;3641;49.082;8.200;2023-01-01T05:21:45;100613.16;;;11.97;76.39
7200;BME280;3641;49.082;8.200;2023-01-01T05:24:12;100604.94;;;11.97;75.99
7200;BME280;3641;49.082;8.200;2023-01-01T05:26:40;100607.09;;;11.87;77.18
7200;BME280;3641;49.082;8.200;2023-01-01T05:29:09;100618.50;;;11.76;77.75
7200;BME280;3641;49.082;8.200;2023-01-01T05:31:35;100625.72;;;11.54;78.61
7200;BME280;3641;49.082;8.200;2023-01-01T05:34:03;100633.84;;;11.62;78.04
7200;BME280;3641;49.082;8.200;2023-01-01T05:36:31;100631.66;;;11.57;77.69
7200;BME280;3641;49.082;8.200;2023-01-01T05:38:58;100625.44;;;11.63;78.12
7200;BME280;3641;49.082;8.200;2023-01-01T05:41:25;100619.88;;;11.34;78.81
7200;BME280;3641;49.082;8.200;2023-01-01T05:43:52;100633.44;;;11.27;79.00
7200;BME280;3641;49.082;8.200;2023-01-01T05:46:21;100636.53;;;11.24;79.63
7200;BME280;3641;49.082;8.200;2023-01-01T05:48:49;100641.53;;;11.20;79.95
7200;BME280;3641;49.082;8.200;2023-01-01T05:51:18;100635.19;;;11.20;79.46
7200;BME280;3641;49.082;8.200;2023-01-01T05:53:44;100636.19;;;11.27;78.67
7200;BME280;3641;49.082;8.200;2023-01-01T05:56:12;100634.00;;;11.22;79.28
7200;BME280;3641;49.082;8.200;2023-01-01T05:58:39;100634.16;;;11.44;77.70
7200;BME280;3641;49.082;8.200;2023-01-01T06:01:07;100639.66;;;11.59;77.32
7200;BME280;3641;49.082;8.200;2023-01-01T06:03:35;100639.31;;;11.39;78.28
7200;BME280;3641;49.082;8.200;2023-01-01T06:06:03;100644.00;;;11.30;78.59
7200;BME280;3641;49.082;8.200;2023-01-01T06:08:30;100656.81;;;11.53;77.76
7200;BME280;3641;49.082;8.200;2023-01-01T06:10:58;100653.41;;;11.51;77.57
7200;BME280;3641;49.082;8.200;2023-01-01T06:13:24;100653.88;;;11.54;77.75
7200;BME280;3641;49.082;8.200;2023-01-01T06:15:52;100658.19;;;11.49;77.59
7200;BME280;3641;49.082;8.200;2023-01-01T06:18:19;100648.13;;;11.49;77.78
7200;BME280;3641;49.082;8.200;2023-01-01T06:20:47;100650.88;;;11.49;77.46
7200;BME280;3641;49.082;8.200;2023-01-01T06:23:13;100648.06;;;11.57;76.64
7200;BME280;3641;49.082;8.200;2023-01-01T06:25:40;100640.59;;;11.51;77.11
7200;BME280;3641;49.082;8.200;2023-01-01T06:28:06;100646.94;;;11.29;77.86
7200;BME280;3641;49.082;8.200;2023-01-01T06:30:33;100656.41;;;11.41;77.41
7200;BME280;3641;49.082;8.200;2023-01-01T06:32:59;100660.28;;;11.47;77.59
7200;BME280;3641;49.082;8.200;2023-01-01T06:35:26;100664.91;;;11.46;76.99
7200;BME280;3641;49.082;8.200;2023-01-01T06:37:54;100671.13;;;11.55;76.66
7200;BME280;3641;49.082;8.200;2023-01-01T06:40:20;100669.28;;;11.32;78.02
7200;BME280;3641;49.082;8.200;2023-01-01T06:42:47;100664.94;;;11.15;78.75
7200;BME280;3641;49.082;8.200;2023-01-01T06:45:13;100664.41;;;11.19;78.66
7200;BME280;3641;49.082;8.200;2023-01-01T06:47:40;100676.78;;;11.07;78.72
7200;BME280;3641;49.082;8.200;2023-01-01T06:50:07;100674.97;;;11.22;78.13
7200;BME280;3641;49.082;8.200;2023-01-01T06:52:33;100667.19;;;11.34;77.61
7200;BME280;3641;49.082;8.200;2023-01-01T06:55:01;100671.34;;;11.30;77.59
7200;BME280;3641;49.082;8.200;2023-01-01T06:57:28;100670.63;;;11.36;76.90
7200;BME280;3641;49.082;8.200;2023-01-01T06:59:54;100682.25;;;11.07;78.28
7200;BME280;3641;49.082;8.200;2023-01-01T07:02:21;100692.41;;;11.21;77.50
7200;BME280;3641;49.082;8.200;2023-01-01T07:04:47;100705.69;;;11.24;77.34
7200;BME280;3641;49.082;8.200;2023-01-01T07:07:14;100702.59;;;11.27;77.04
7200;BME280;3641;49.082;8.200;2023-01-01T07:09:41;100709.47;;;11.23;77.65
7200;BME280;3641;49.082;8.200;2023-01-01T07:12:08;100708.59;;;11.00;78.11
7200;BME280;3641;49.082;8.200;2023-01-01T07:14:35;100705.50;;;11.03;78.64
7200;BME280;3641;49.082;8.200;2023-01-01T07:17:01;100709.72;;;11.14;78.30
7200;BME280;3641;49.082;8.200;2023-01-01T07:19:28;100718.28;;;11.11;77.43
7200;BME280;3641;49.082;8.200;2023-01-01T07:21:54;100723.50;;;10.89;79.39
7200;BME280;3641;49.082;8.200;2023-01-01T07:24:21;100720.06;;;10.95;79.15
7200;BME280;3641;49.082;8.200;2023-01-01T07:26:47;100723.03;;;11.08;77.76
7200;BME280;3641;49.082;8.200;2023-01-01T07:29:15;100724.59;;;10.71;80.08
7200;BME280;3641;49.082;8.200;2023-01-01T07:31:43;100730.38;;;10.77;79.87
7200;BME280;3641;49.082;8.200;2023-01-01T07:34:12;100731.81;;;10.64;80.60
7200;BME280;3641;49.082;8.200;2023-01-01T07:36:39;100728.72;;;10.67;80.26
7200;BME280;3641;49.082;8.200;2023-01-01T07:39:06;100739.44;;;10.69;80.39
7200;BME280;3641;49.082;8.200;2023-01-01T07:41:33;100747.13;;;10.65;80.28
7200;BME280;3641;49.082;8.200;2023-01-01T07:43:59;100754.94;;;10.77;80.32
7200;BME280;3641;49.082;8.200;2023-01-01T07:46:27;100747.47;;;10.70;79.95
7200;BME280;3641;49.082;8.200;2023-01-01T07:48:54;100745.78;;;10.69;80.15
7200;BME280;3641;49.082;8.200;2023-01-01T07:51:21;100745.91;;;10.76;79.76
7200;BME280;3641;49.082;8.200;2023-01-01T07:53:47;100748.94;;;10.81;79.22
7200;BME280;3641;49.082;8.200;2023-01-01T07:56:14;100753.75;;;10.79;79.87
7200;BME280;3641;49.082;8.200;2023-01-01T07:58:40;100761.34;;;11.00;77.97
7200;BME280;3641;49.082;8.200;2023-01-01T08:01:08;100763.47;;;10.82;79.30
7200;BME280;3641;49.082;8.200;2023-01-01T08:03:36;100757.47;;;10.86;79.52
7200;BME280;3641;49.082;8.200;2023-01-01T08:06:06;100756.53;;;11.02;77.86
7200;BME280;3641;49.082;8.200;2023-01-01T08:08:32;100770.81;;;10.81;79.75
7200;BME280;3641;49.082;8.200;2023-01-01T08:10:59;100761.94;;;10.79;79.48
7200;BME280;3641;49.082;8.200;2023-01-01T08:13:25;100768.78;;;10.83;79.74
7200;BME280;3641;49.082;8.200;2023-01-01T08:15:52;100768.38;;;10.86;78.36
7200;BME280;3641;49.082;8.200;2023-01-01T08:18:20;100766.19;;;10.90;79.00
7200;BME280;3641;49.082;8.200;2023-01-01T08:20:47;100774.03;;;10.93;78.29
7200;BME280;3641;49.082;8.200;2023-01-01T08:23:14;100771.59;;;10.98;78.04
7200;BME280;3641;49.082;8.200;2023-01-01T08:25:40;100773.31;;;10.99;78.39
7200;BME280;3641;49.082;8.200;2023-01-01T08:28:07;100767.09;;;11.05;78.29
7200;BME280;3641;49.082;8.200;2023-01-01T08:30:34;100771.56;;;11.06;77.73
7200;BME280;3641;49.082;8.200;2023-01-01T08:33:00;100773.94;;;11.09;77.34
7200;BME280;3641;49.082;8.200;2023-01-01T08:35:27;100770.44;;;11.24;77.64
7200;BME280;3641;49.082;8.200;2023-01-01T08:37:55;100768.25;;;11.19;77.86
7200;BME280;3641;49.082;8.200;2023-01-01T08:40:21;100778.34;;;11.19;77.67
7200;BME280;3641;49.082;8.200;2023-01-01T08:42:48;100770.38;;;11.32;77.63
7200;BME280;3641;49.082;8.200;2023-01-01T08:45:15;100769.91;;;11.29;77.05
7200;BME280;3641;49.082;8.200;2023-01-01T08:47:42;100775.69;;;11.34;76.47
7200;BME280;3641;49.082;8.200;2023-01-01T08:50:09;100785.78;;;11.33;76.21
7200;BME280;3641;49.082;8.200;2023-01-01T08:52:35;100784.53;;;11.36;76.57
7200;BME280;3641;49.082;8.200;2023-01-01T08:55:03;100776.13;;;11.45;76.58
7200;BME280;3641;49.082;8.200;2023-01-01T08:57:30;100775.81;;;11.40;76.37
7200;BME280;3641;49.082;8.200;2023-01-01T08:59:56;100781.41;;;11.47;76.45
7200;BME280;3641;49.082;8.200;2023-01-01T09:02:23;100779.34;;;11.49;76.05
7200;BME280;3641;49.082;8.200;2023-01-01T09:04:50;100777.75;;;11.55;76.04
7200;BME280;3641;49.082;8.200;2023-01-01T09:07:16;100783.13;;;11.71;75.92
7200;BME280;3641;49.082;8.200;2023-01-01T09:09:42;100785.19;;;11.69;75.64
7200;BME280;3641;49.082;8.200;2023-01-01T09:12:13;100779.53;;;11.71;75.30
7200;BME280;3641;49.082;8.200;2023-01-01T09:14:40;100788.78;;;11.70;75.96
7200;BME280;3641;49.082;8.200;2023-01-01T09:17:07;100787.06;;;11.69;75.76
7200;BME280;3641;49.082;8.200;2023-01-01T09:19:33;100798.59;;;11.79;74.33
7200;BME280;3641;49.082;8.200;2023-01-01T09:22:00;100806.09;;;11.85;74.02
7200;BME280;3641;49.082;8.200;2023-01-01T09:24:26;100804.69;;;11.89;74.69
7200;BME280;3641;49.082;8.200;2023-01-01T09:26:53;100796.81;;;11.94;74.34
7200;BME280;3641;49.082;8.200;2023-01-01T09:29:21;100808.59;;;11.95;75.39
7200;BME280;3641;49.082;8.200;2023-01-01T09:31:47;100806.50;;;12.05;73.44
7200;BME280;3641;49.082;8.200;2023-01-01T09:34:14;100806.78;;;12.10;74.91
7200;BME280;3641;49.082;8.200;2023-01-01T09:36:41;100820.66;;;12.09;73.79
7200;BME280;3641;49.082;8.200;2023-01-01T09:39:10;100816.81;;;12.18;72.96
7200;BME280;3641;49.082;8.200;2023-01-01T09:41:49;100820.03;;;12.22;72.64
7200;BME280;3641;49.082;8.200;2023-01-01T09:44:29;100815.53;;;12.29;72.01
7200;BME280;3641;49.082;8.200;2023-01-01T09:47:01;100818.75;;;12.32;71.37
7200;BME280;3641;49.082;8.200;2023-01-01T09:49:33;100829.25;;;12.44;72.13
7200;BME280;3641;49.082;8.200;2023-01-01T09:52:01;100827.38;;;12.59;70.21
7200;BME280;3641;49.082;8.200;2023-01-01T09:54:31;100832.31;;;12.64;70.80
7200;BME280;3641;49.082;8.200;2023-01-01T09:57:01;100832.03;;;12.74;68.93
7200;BME280;3641;49.082;8.200;2023-01-01T09:59:30;100835.31;;;12.84;69.56
7200;BME280;3641;49.082;8.200;2023-01-01T10:02:05;100825.78;;;12.95;68.09
7200;BME280;3641;49.082;8.200;2023-01-01T10:04:50;100830.97;;;13.19;68.20
7200;BME280;3641;49.082;8.200;2023-01-01T10:07:28;100831.84;;;14.14;65.04
7200;BME280;3641;49.082;8.200;2023-01-01T10:10:02;100829.91;;;13.87;64.19
7200;BME280;3641;49.082;8.200;2023-01-01T10:12:35;100832.63;;;14.80;62.46
7200;BME280;3641;49.082;8.200;2023-01-01T10:15:11;100826.13;;;15.29;61.45
7200;BME280;3641;49.082;8.200;2023-01-01T10:17:43;100829.06;;;14.86;61.32
7200;BME280;3641;49.082;8.200;2023-01-01T10:20:16;100824.53;;;15.06;61.93
7200;BME280;3641;49.082;8.200;2023-01-01T10:22:46;100821.78;;;14.71;64.33
7200;BME280;3641;49.082;8.200;2023-01-01T10:25:17;100815.78;;;14.61;62.49
7200;BME280;3641;49.082;8.200;2023-01-01T10:27:45;100801.97;;;14.54;62.46
7200;BME280;3641;49.082;8.200;2023-01-01T10:30:16;100796.91;;;14.58;66.30
7200;BME280;3641;49.082;8.200;2023-01-01T10:32:46;100800.88;;;14.49;63.59
7200;BME280;3641;49.082;8.200;2023-01-01T10:35:15;100808.09;;;14.57;67.87
7200;BME280;3641;49.082;8.200;2023-01-01T10:37:42;100802.47;;;14.37;64.21
7200;BME280;3641;49.082;8.200;2023-01-01T10:40:14;100791.41;;;14.23;64.72
7200;BME280;3641;49.082;8.200;2023-01-01T10:42:41;100792.34;;;14.09;64.25
7200;BME280;3641;49.082;8.200;2023-01-01T10:45:11;100784.88;;;14.03;64.66
7200;BME280;3641;49.082;8.200;2023-01-01T10:48:11;100791.00;;;14.05;64.05
7200;BME280;3641;49.082;8.200;2023-01-01T10:50:43;100783.75;;;13.97;65.43
7200;BME280;3641;49.082;8.200;2023-01-01T10:53:21;100779.09;;;13.97;66.49
7200;BME280;3641;49.082;8.200;2023-01-01T10:55:49;100783.50;;;13.92;66.55
7200;BME280;3641;49.082;8.200;2023-01-01T10:58:28;100773.16;;;13.94;70.57
7200;BME280;3641;49.082;8.200;2023-01-01T11:00:59;100777.78;;;13.87;65.89
7200;BME280;3641;49.082;8.200;2023-01-01T11:03:28;100772.66;;;13.84;65.57
7200;BME280;3641;49.082;8.200;2023-01-01T11:06:00;100772.19;;;13.80;67.70
7200;BME280;3641;49.082;8.200;2023-01-01T11:08:28;100763.19;;;13.86;68.46
7200;BME280;3641;49.082;8.200;2023-01-01T11:10:57;100758.75;;;13.85;66.97
7200;BME280;3641;49.082;8.200;2023-01-01T11:13:25;100748.91;;;13.97;64.54
7200;BME280;3641;49.082;8.200;2023-01-01T11:15:52;100746.78;;;13.93;67.59
7200;BME280;3641;49.082;8.200;2023-01-01T11:18:20;100741.16;;;14.01;64.50
7200;BME280;3641;49.082;8.200;2023-01-01T11:20:52;100748.19;;;14.10;64.53
7200;BME280;3641;49.082;8.200;2023-01-01T11:23:27;100741.84;;;14.10;65.74
7200;BME280;3641;49.082;8.200;2023-01-01T11:26:00;100740.06;;;14.24;63.01
7200;BME280;3641;49.082;8.200;2023-01-01T11:28:27;100739.63;;;14.20;63.09
7200;BME280;3641;49.082;8.200;2023-01-01T11:31:04;100734.00;;;14.35;62.55
7200;BME280;3641;49.082;8.200;2023-01-01T11:33:35;100734.34;;;14.53;61.41
7200;BME280;3641;49.082;8.200;2023-01-01T11:36:06;100725.03;;;14.54;62.33
7200;BME280;3641;49.082;8.200;2023-01-01T11:38:33;100724.31;;;14.67;60.93
7200;BME280;3641;49.082;8.200;2023-01-01T11:41:04;100722.47;;;14.75;61.60
7200;BME280;3641;49.082;8.200;2023-01-01T11:43:37;100722.06;;;14.84;62.49
7200;BME280;3641;49.082;8.200;2023-01-01T11:46:09;100715.47;;;14.79;62.22
7200;BME280;3641;49.082;8.200;2023-01-01T11:48:41;100704.88;;;14.69;62.82
7200;BME280;3641;49.082;8.200;2023-01-01T11:51:28;100711.09;;;14.56;66.85
7200;BME280;3641;49.082;8.200;2023-01-01T11:54:08;100703.44;;;14.80;61.93
7200;BME280;3641;49.082;8.200;2023-01-01T11:56:35;100698.97;;;14.72;65.03
7200;BME280;3641;49.082;8.200;2023-01-01T11:59:08;100707.84;;;14.74;64.43
7200;BME280;3641;49.082;8.200;2023-01-01T12:01:41;100714.38;;;14.66;64.84
7200;BME280;3641;49.082;8.200;2023-01-01T12:04:16;100711.47;;;14.75;62.71
7200;BME280;3641;49.082;8.200;2023-01-01T12:06:47;100705.81;;;14.89;61.14
7200;BME280;3641;49.082;8.200;2023-01-01T12:09:21;100711.31;;;14.89;61.79
7200;BME280;3641;49.082;8.200;2023-01-01T12:11:50;100703.03;;;14.83;62.88
7200;BME280;3641;49.082;8.200;2023-01-01T12:14:22;100698.56;;;14.75;63.50
7200;BME280;3641;49.082;8.200;2023-01-01T12:16:55;100697.78;;;14.95;61.19
7200;BME280;3641;49.082;8.200;2023-01-01T12:19:26;100694.38;;;14.79;62.39
7200;BME280;3641;49.082;8.200;2023-01-01T12:21:58;100691.22;;;14.82;62.31
7200;BME280;3641;49.082;8.200;2023-01-01T12:24:31;100688.47;;;14.89;61.10
7200;BME280;3641;49.082;8.200;2023-01-01T12:27:11;100686.59;;;14.96;60.39
7200;BME280;3641;49.082;8.200;2023-01-01T12:30:05;100685.31;;;14.92;61.14
7200;BME280;3641;49.082;8.200;2023-01-01T12:32:47;100671.41;;;15.07;60.13
7200;BME280;3641;49.082;8.200;2023-01-01T12:35:26;100663.78;;;15.02;61.50
7200;BME280;3641;49.082;8.200;2023-01-01T12:38:06;100664.00;;;15.07;59.94
7200;BME280;3641;49.082;8.200;2023-01-01T12:40:44;100664.03;;;15.14;60.50
7200;BME280;3641;49.082;8.200;2023-01-01T12:43:17;100655.81;;;15.34;58.04
7200;BME280;3641;49.082;8.200;2023-01-01T12:46:11;100646.66;;;15.07;61.11
7200;BME280;3641;49.082;8.200;2023-01-01T12:48:52;100636.75;;;15.39;57.11
7200;BME280;3641;49.082;8.200;2023-01-01T12:51:30;100657.66;;;15.20;58.10
7200;BME280;3641;49.082;8.200;2023-01-01T12:54:08;100636.97;;;15.31;57.88
7200;BME280;3641;49.082;8.200;2023-01-01T12:56:43;100635.09;;;15.32;57.58
7200;BME280;3641;49.082;8.200;2023-01-01T12:59:13;100644.16;;;15.25;58.32
7200;BME280;3641;49.082;8.200;2023-01-01T13:01:42;100637.59;;;15.33;57.93
7200;BME280;3641;49.082;8.200;2023-01-01T13:04:12;100645.22;;;15.31;56.74
7200;BME280;3641;49.082;8.200;2023-01-01T13:06:43;100652.84;;;15.36;57.33
7200;BME280;3641;49.082;8.200;2023-01-01T13:09:14;100643.09;;;15.20;58.26
7200;BME280;3641;49.082;8.200;2023-01-01T13:11:45;100647.56;;;15.28;56.74
7200;BME280;3641;49.082;8.200;2023-01-01T13:14:12;100646.69;;;15.20;57.67
7200;BME280;3641;49.082;8.200;2023-01-01T13:16:40;100640.53;;;15.12;58.88
7200;BME280;3641;49.082;8.200;2023-01-01T13:19:23;100649.22;;;15.15;59.05
7200;BME280;3641;49.082;8.200;2023-01-01T13:21:50;100645.00;;;15.13;58.83
7200;BME280;3641;49.082;8.200;2023-01-01T13:24:22;100643.09;;;15.20;57.82